Time;durP1;ratioP1;P1;durP2;ratioP2;P2;SDS_P1;SDS_P2;PMS_P1;PMS_P2;Temp;Humidity;BMP_temperature;BMP_pressure;BME280_temperature;BME280_humidity;BME280_pressure;Samples;Min_cycle;Max_cycle;Signal;HPM_P1;HPM_P2
2021/07/22 00:02:21;;;;;;;545.38;309.02;;;14.80;99.90;;;;;;8294142;28;20030;-64
2021/07/22 00:06:21;;;;;;;541.67;300.88;;;14.70;99.90;;;;;;8294535;28;20045;-64
2021/07/22 00:10:22;;;;;;;550.20;310.20;;;15.00;99.90;;;;;;8293881;28;20026;-63
2021/07/22 00:14:23;;;;;;;538.33;300.17;;;15.00;99.90;;;;;;8294748;28;20022;-63
2021/07/22 00:18:23;;;;;;;529.22;290.00;;;15.10;99.90;;;;;;8294510;28;20079;-64
2021/07/22 00:22:24;;;;;;;533.50;292.75;;;14.70;99.90;;;;;;8294024;28;20037;-63
2021/07/22 00:26:24;;;;;;;529.58;285.83;;;14.70;99.90;;;;;;8293798;28;20121;-64
2021/07/22 00:30:25;;;;;;;526.55;288.23;;;14.50;99.90;;;;;;8293796;28;20037;-63
2021/07/22 00:34:25;;;;;;;528.17;289.25;;;14.70;99.90;;;;;;8293637;28;20026;-64
2021/07/22 00:38:26;;;;;;;530.30;287.80;;;14.50;99.90;;;;;;8293713;28;20030;-63
2021/07/22 00:42:26;;;;;;;526.90;281.67;;;14.30;99.90;;;;;;8276028;28;20022;-64
2021/07/22 00:46:27;;;;;;;508.42;275.40;;;14.40;99.90;;;;;;8293672;28;20029;-64
2021/07/22 00:50:29;;;;;;;510.60;279.35;;;14.20;99.90;;;;;;8293298;28;20030;-64
2021/07/22 00:54:29;;;;;;;507.80;275.95;;;14.10;99.90;;;;;;8293153;28;20098;-64
2021/07/22 00:58:30;;;;;;;501.50;270.00;;;13.80;99.90;;;;;;8284639;28;20036;-63
2021/07/22 01:02:31;;;;;;;506.40;279.55;;;13.70;99.90;;;;;;8289670;28;20033;-64
2021/07/22 01:06:31;;;;;;;505.30;275.40;;;13.60;99.90;;;;;;8290057;28;20400;-64
2021/07/22 01:10:32;;;;;;;503.75;273.77;;;13.50;99.90;;;;;;8291606;28;20032;-64
2021/07/22 01:14:32;;;;;;;508.42;277.42;;;13.40;99.90;;;;;;8284296;28;20404;-63
2021/07/22 01:18:33;;;;;;;518.88;289.65;;;13.50;99.90;;;;;;8308182;28;20033;-64
2021/07/22 01:22:34;;;;;;;512.72;277.85;;;13.50;99.90;;;;;;8321177;28;20022;-64
2021/07/22 01:26:34;;;;;;;507.58;269.30;;;13.50;99.90;;;;;;8292684;28;20050;-63
2021/07/22 01:30:35;;;;;;;511.58;268.73;;;13.60;99.90;;;;;;8291899;28;20412;-64
2021/07/22 01:34:35;;;;;;;508.95;263.55;;;13.30;99.90;;;;;;8275915;28;20420;-64
2021/07/22 01:38:36;;;;;;;502.35;264.55;;;13.60;99.90;;;;;;8292848;28;20105;-63
2021/07/22 01:42:36;;;;;;;502.35;268.63;;;13.70;99.90;;;;;;8292402;28;20029;-64
2021/07/22 01:46:37;;;;;;;503.90;266.90;;;13.60;99.90;;;;;;8292464;28;20053;-64
2021/07/22 01:50:37;;;;;;;505.70;267.33;;;13.40;99.90;;;;;;8282553;28;20473;-64
2021/07/22 01:54:38;;;;;;;504.55;269.02;;;13.40;99.90;;;;;;8291730;28;20058;-64
2021/07/22 01:58:39;;;;;;;502.95;264.67;;;13.40;99.90;;;;;;8291725;28;20048;-64
2021/07/22 02:02:40;;;;;;;498.70;259.13;;;13.40;99.90;;;;;;8290992;28;20033;-64
2021/07/22 02:06:41;;;;;;;502.50;267.10;;;13.40;99.90;;;;;;8288534;28;20022;-64
2021/07/22 02:10:42;;;;;;;507.30;268.70;;;13.40;99.90;;;;;;8279553;28;20017;-64
2021/07/22 02:14:42;;;;;;;525.75;273.42;;;13.40;99.90;;;;;;8298482;28;20033;-64
2021/07/22 02:18:43;;;;;;;508.60;273.83;;;13.30;99.90;;;;;;8297978;28;20026;-64
2021/07/22 02:22:43;;;;;;;504.10;271.95;;;13.00;99.90;;;;;;8298124;28;20396;-64
2021/07/22 02:26:44;;;;;;;506.42;265.92;;;12.90;99.90;;;;;;8298056;28;20068;-64
2021/07/22 02:30:44;;;;;;;506.13;269.58;;;13.10;99.90;;;;;;8280441;28;20443;-64
2021/07/22 02:34:45;;;;;;;504.80;267.58;;;12.90;99.90;;;;;;8297860;28;20551;-64
2021/07/22 02:38:46;;;;;;;508.17;267.00;;;12.80;99.90;;;;;;8298192;28;20042;-63
2021/07/22 02:42:46;;;;;;;499.70;262.90;;;12.90;99.90;;;;;;8297736;28;20033;-63
2021/07/22 02:46:47;;;;;;;506.42;269.38;;;12.90;99.90;;;;;;8297929;28;20061;-63
2021/07/22 02:50:47;;;;;;;500.02;264.40;;;13.00;99.90;;;;;;8287656;28;20028;-64
2021/07/22 02:54:48;;;;;;;506.10;270.70;;;12.80;99.90;;;;;;8297465;28;20033;-63
2021/07/22 02:58:48;;;;;;;506.95;271.23;;;12.90;99.90;;;;;;8279402;28;20511;-63
2021/07/22 03:02:49;;;;;;;508.10;273.75;;;12.80;99.90;;;;;;8296627;28;20041;-64
2021/07/22 03:06:49;;;;;;;502.75;270.73;;;12.50;99.90;;;;;;8286408;28;20065;-63
2021/07/22 03:10:50;;;;;;;506.80;264.00;;;12.90;99.90;;;;;;8296000;28;20026;-63
2021/07/22 03:14:50;;;;;;;499.98;262.90;;;12.90;99.90;;;;;;8296711;28;20025;-63
2021/07/22 03:18:51;;;;;;;497.33;259.65;;;12.60;99.90;;;;;;8296799;28;20088;-63
2021/07/22 03:22:51;;;;;;;501.60;265.92;;;12.40;99.90;;;;;;8295641;28;20033;-63
2021/07/22 03:26:52;;;;;;;494.30;264.75;;;12.30;99.90;;;;;;8296555;28;20033;-63
2021/07/22 03:30:53;;;;;;;499.55;259.25;;;12.50;99.90;;;;;;8278766;28;20034;-63
2021/07/22 03:34:53;;;;;;;497.17;268.75;;;12.20;99.90;;;;;;8296153;28;20034;-64
2021/07/22 03:38:54;;;;;;;493.27;258.35;;;12.20;99.90;;;;;;8296146;28;20050;-63
2021/07/22 03:42:54;;;;;;;503.60;263.50;;;12.30;99.90;;;;;;8295734;28;20512;-64
2021/07/22 03:46:55;;;;;;;517.58;283.98;;;12.50;99.90;;;;;;8291005;28;20030;-63
2021/07/22 03:50:55;;;;;;;499.70;259.90;;;12.70;99.90;;;;;;8274803;28;20449;-64
2021/07/22 03:54:56;;;;;;;504.45;261.45;;;12.30;99.90;;;;;;8277813;28;20053;-64
2021/07/22 03:58:57;;;;;;;506.00;262.38;;;12.30;99.90;;;;;;8294918;28;20109;-64
2021/07/22 04:03:02;;;;;;;503.23;267.08;;;12.30;99.90;;;;;;8275840;28;20045;-64
2021/07/22 04:07:02;;;;;;;511.85;270.48;;;12.30;99.90;;;;;;8281432;28;20076;-63
2021/07/22 04:11:03;;;;;;;501.15;270.20;;;12.40;99.90;;;;;;8288573;28;20505;-63
2021/07/22 04:15:04;;;;;;;498.95;269.48;;;12.70;99.90;;;;;;8283039;28;20105;-63
2021/07/22 04:19:05;;;;;;;508.00;269.00;;;12.70;99.90;;;;;;8280671;28;20404;-64
2021/07/22 04:23:05;;;;;;;510.67;269.05;;;12.80;99.90;;;;;;8287539;28;20038;-63
2021/07/22 04:27:08;;;;;;;499.52;266.50;;;13.10;99.90;;;;;;8284123;28;20064;-63
2021/07/22 04:31:08;;;;;;;496.15;262.40;;;13.30;99.90;;;;;;8283085;28;20499;-63
2021/07/22 04:35:10;;;;;;;493.80;263.40;;;13.50;99.90;;;;;;8288298;28;20038;-70
2021/07/22 04:39:10;;;;;;;510.20;266.52;;;13.60;99.90;;;;;;8265573;28;20034;-69
2021/07/22 04:43:11;;;;;;;500.98;265.60;;;14.10;99.90;;;;;;8276981;28;20535;-69
2021/07/22 04:47:11;;;;;;;518.78;280.48;;;14.10;99.90;;;;;;8259555;28;20084;-70
2021/07/22 04:51:12;;;;;;;505.25;277.98;;;14.20;99.90;;;;;;8259282;28;20022;-70
2021/07/22 04:55:13;;;;;;;509.95;281.20;;;14.30;99.90;;;;;;8280325;28;20404;-70
2021/07/22 04:59:13;;;;;;;500.58;278.60;;;14.90;99.90;;;;;;8269906;28;20509;-70
2021/07/22 05:03:14;;;;;;;508.00;287.90;;;15.00;99.90;;;;;;8269090;28;20109;-75
2021/07/22 05:07:14;;;;;;;513.63;288.60;;;15.30;99.90;;;;;;8280773;28;20041;-71
2021/07/22 05:11:15;;;;;;;507.55;284.38;;;15.40;99.90;;;;;;8247703;28;20081;-71
2021/07/22 05:15:16;;;;;;;512.58;286.45;;;15.50;99.90;;;;;;8287731;28;20034;-69
2021/07/22 05:19:16;;;;;;;511.80;287.77;;;15.40;99.90;;;;;;8278922;28;20488;-69
2021/07/22 05:23:17;;;;;;;508.95;289.25;;;15.50;99.90;;;;;;8277475;28;20046;-69
2021/07/22 05:27:19;;;;;;;528.97;305.52;;;15.90;99.90;;;;;;8281467;28;20034;-69
2021/07/22 05:31:20;;;;;;;523.40;303.35;;;16.40;99.90;;;;;;8284530;28;20024;-71
2021/07/22 05:35:20;;;;;;;513.25;295.40;;;16.70;99.90;;;;;;8283734;28;20030;-67
2021/07/22 05:39:21;;;;;;;530.42;311.67;;;16.70;99.90;;;;;;8275571;28;20039;-70
2021/07/22 05:43:21;;;;;;;522.08;309.20;;;17.10;99.90;;;;;;8267964;28;20088;-69
2021/07/22 05:47:22;;;;;;;524.00;310.02;;;17.30;99.90;;;;;;8274543;28;20066;-69
2021/07/22 05:51:22;;;;;;;524.20;320.98;;;17.70;99.90;;;;;;8246359;28;20477;-71
2021/07/22 05:55:23;;;;;;;529.30;332.70;;;17.90;99.90;;;;;;8251566;28;20028;-69
2021/07/22 05:59:23;;;;;;;527.72;325.83;;;18.00;99.90;;;;;;8270427;28;20596;-71
2021/07/22 06:03:24;;;;;;;524.90;329.63;;;18.10;99.90;;;;;;8249332;28;20030;-71
2021/07/22 06:07:24;;;;;;;537.47;342.60;;;18.40;99.90;;;;;;8291325;28;20030;-71
2021/07/22 06:11:25;;;;;;;537.28;348.80;;;18.50;99.90;;;;;;8267030;28;20061;-65
2021/07/22 06:15:25;;;;;;;536.95;349.20;;;18.50;99.90;;;;;;8259667;28;20030;-65
2021/07/22 06:19:29;;;;;;;537.60;345.85;;;18.80;99.90;;;;;;8252915;28;20026;-65
2021/07/22 06:23:30;;;;;;;537.25;347.75;;;19.10;99.90;;;;;;8289617;28;20037;-65
2021/07/22 06:27:31;;;;;;;533.78;348.98;;;19.30;99.90;;;;;;8291844;28;20034;-65
2021/07/22 06:31:31;;;;;;;535.85;353.35;;;19.50;99.90;;;;;;8280185;28;20022;-65
2021/07/22 06:35:32;;;;;;;539.65;353.63;;;19.60;99.90;;;;;;8277582;28;20485;-65
2021/07/22 06:39:33;;;;;;;541.05;365.65;;;19.70;99.90;;;;;;8285592;28;20457;-65
2021/07/22 06:43:33;;;;;;;543.85;370.80;;;19.80;99.90;;;;;;8274649;28;20034;-65
2021/07/22 06:47:38;;;;;;;538.05;369.98;;;20.10;99.90;;;;;;8262935;28;20157;-65
2021/07/22 06:51:39;;;;;;;544.65;383.73;;;20.30;99.90;;;;;;8260636;28;20037;-64
2021/07/22 06:55:40;;;;;;;544.42;387.58;;;20.50;99.90;;;;;;8290012;28;20022;-64
2021/07/22 06:59:40;;;;;;;545.33;398.00;;;20.80;99.90;;;;;;8280413;28;20030;-65
2021/07/22 07:03:41;;;;;;;544.20;393.77;;;21.00;99.90;;;;;;8262186;28;20022;-64
2021/07/22 07:07:41;;;;;;;548.35;401.38;;;21.20;99.90;;;;;;8262228;28;20109;-64
2021/07/22 07:11:42;;;;;;;549.53;410.67;;;21.40;99.90;;;;;;8281782;28;20017;-64
2021/07/22 07:15:42;;;;;;;551.15;423.88;;;21.40;99.90;;;;;;8279434;28;20093;-65
2021/07/22 07:19:43;;;;;;;552.08;431.30;;;21.60;99.90;;;;;;8277457;28;20523;-65
2021/07/22 07:23:44;;;;;;;557.03;442.15;;;21.70;99.90;;;;;;8275780;28;20034;-65
2021/07/22 07:27:45;;;;;;;552.38;428.08;;;21.90;99.90;;;;;;8274518;28;20023;-65
2021/07/22 07:31:45;;;;;;;553.85;437.13;;;22.00;99.90;;;;;;8292298;28;20029;-65
2021/07/22 07:35:46;;;;;;;560.15;452.02;;;22.20;99.90;;;;;;8280765;28;20060;-64
2021/07/22 07:39:47;;;;;;;560.00;465.08;;;22.50;99.90;;;;;;8280416;28;20041;-65
2021/07/22 07:43:47;;;;;;;559.22;461.23;;;22.60;99.90;;;;;;8290659;28;20030;-65
2021/07/22 07:47:48;;;;;;;557.05;471.33;;;22.70;99.90;;;;;;8278720;28;20033;-65
2021/07/22 07:51:48;;;;;;;561.95;476.65;;;22.80;99.90;;;;;;8276169;28;20033;-65
2021/07/22 07:55:49;;;;;;;561.58;481.40;;;22.90;99.90;;;;;;8271971;28;20101;-65
2021/07/22 07:59:50;;;;;;;563.70;481.52;;;23.10;99.90;;;;;;8279078;28;20030;-65
2021/07/22 08:03:50;;;;;;;566.70;496.52;;;23.30;99.90;;;;;;8292451;28;20026;-65
2021/07/22 08:07:51;;;;;;;561.58;492.95;;;23.50;99.90;;;;;;8293249;28;20053;-65
2021/07/22 08:11:51;;;;;;;567.67;504.85;;;23.70;99.90;;;;;;8294630;28;20033;-65
2021/07/22 08:15:52;;;;;;;570.58;507.60;;;23.90;99.90;;;;;;8294995;28;20018;-65
2021/07/22 08:19:57;;;;;;;581.90;518.75;;;24.10;99.90;;;;;;8287950;28;20064;-65
2021/07/22 08:23:59;;;;;;;591.88;528.50;;;24.40;99.90;;;;;;8292398;28;20095;-65
2021/07/22 08:27:59;;;;;;;593.17;529.15;;;24.40;99.90;;;;;;8274881;28;20034;-65
2021/07/22 08:32:00;;;;;;;602.65;539.03;;;24.60;99.90;;;;;;8274882;28;20029;-65
2021/07/22 08:36:00;;;;;;;602.08;538.50;;;24.80;99.90;;;;;;8291185;28;20116;-65
2021/07/22 08:40:04;;;;;;;614.65;550.60;;;24.70;99.90;;;;;;8293317;28;20037;-66
2021/07/22 08:44:08;;;;;;;626.17;562.05;;;24.90;99.90;;;;;;8292591;28;20084;-65
2021/07/22 08:48:08;;;;;;;631.70;567.00;;;25.10;99.90;;;;;;8266119;28;20022;-65
2021/07/22 08:52:11;;;;;;;626.38;562.13;;;25.30;99.90;;;;;;8261230;28;20030;-65
2021/07/22 08:56:12;;;;;;;629.45;565.55;;;25.50;99.90;;;;;;8260888;28;20023;-65
2021/07/22 09:00:14;;;;;;;632.88;568.60;;;25.70;99.90;;;;;;8260717;28;20401;-65
2021/07/22 09:04:15;;;;;;;630.78;566.97;;;25.80;99.90;;;;;;8278736;28;20412;-65
2021/07/22 09:08:15;;;;;;;638.75;574.42;;;26.00;99.90;;;;;;8292366;28;20033;-65
2021/07/22 09:12:16;;;;;;;631.22;567.22;;;25.90;99.90;;;;;;8288573;28;20030;-65
2021/07/22 09:16:34;;;;;;;637.58;573.53;;;25.80;99.90;;;;;;8289643;28;20065;-65
2021/07/22 09:20:36;;;;;;;645.10;580.92;;;26.10;99.90;;;;;;8269654;28;20034;-65
2021/07/22 09:24:47;;;;;;;641.83;577.60;;;26.30;99.90;;;;;;8273774;28;20113;-65
2021/07/22 09:29:03;;;;;;;655.13;590.60;;;26.40;99.90;;;;;;8289947;28;20100;-65
2021/07/22 09:33:05;;;;;;;654.05;589.75;;;26.50;99.90;;;;;;8292512;28;20017;-63
2021/07/22 09:37:09;;;;;;;657.83;593.22;;;26.70;99.90;;;;;;8287901;28;20018;-65
2021/07/22 09:41:22;;;;;;;663.78;599.03;;;26.70;99.90;;;;;;8271428;28;20049;-65
2021/07/22 09:45:25;;;;;;;666.38;601.25;;;26.90;99.90;;;;;;8290324;28;20109;-66
2021/07/22 09:49:37;;;;;;;666.25;601.22;;;26.90;99.90;;;;;;8290587;28;20029;-66
2021/07/22 09:53:37;;;;;;;666.10;601.30;;;27.00;99.90;;;;;;8289704;28;20022;-65
2021/07/22 09:57:39;;;;;;;666.10;601.50;;;27.20;99.90;;;;;;8290584;28;20459;-65
2021/07/22 10:01:48;;;;;;;670.47;605.58;;;27.10;99.90;;;;;;8288491;28;20037;-65
2021/07/22 10:06:04;;;;;;;683.95;618.40;;;27.20;99.90;;;;;;8284753;28;20053;-65
2021/07/22 10:10:06;;;;;;;694.15;628.25;;;27.50;99.90;;;;;;8276847;28;20455;-65
2021/07/22 10:14:06;;;;;;;693.15;627.15;;;27.60;99.90;;;;;;8275412;28;20027;-65
2021/07/22 10:18:07;;;;;;;729.88;654.42;;;27.80;99.90;;;;;;8280290;28;20046;-66
2021/07/22 10:22:08;;;;;;;696.58;630.60;;;27.70;99.90;;;;;;8267178;28;20041;-66
2021/07/22 10:26:09;;;;;;;699.92;633.85;;;27.80;99.90;;;;;;8277668;28;20374;-66
2021/07/22 10:30:15;;;;;;;699.92;633.90;;;28.00;99.90;;;;;;8278377;28;20038;-66
2021/07/22 10:34:19;;;;;;;709.25;642.35;;;28.20;99.90;;;;;;8262587;28;20041;-66
2021/07/22 10:38:38;;;;;;;716.90;651.00;;;28.50;99.00;;;;;;8298057;28;20026;-65
2021/07/22 10:42:43;;;;;;;721.67;654.97;;;28.70;97.40;;;;;;8298500;28;20152;-66
2021/07/22 10:46:57;;;;;;;718.08;651.92;;;28.70;96.80;;;;;;8298062;28;20041;-66
2021/07/22 10:50:59;;;;;;;721.15;654.95;;;28.80;97.40;;;;;;8296158;28;20555;-66
2021/07/22 10:55:00;;;;;;;740.92;674.10;;;28.90;95.60;;;;;;8286239;28;20108;-66
2021/07/22 10:59:01;;;;;;;726.60;660.55;;;28.90;98.20;;;;;;8279285;28;20037;-66
2021/07/22 11:03:01;;;;;;;735.58;669.30;;;28.60;95.40;;;;;;8293423;28;20037;-66
2021/07/22 11:07:04;;;;;;;754.38;687.47;;;29.50;98.90;;;;;;8280313;28;20044;-66
2021/07/22 11:11:07;;;;;;;771.45;704.00;;;30.20;96.00;;;;;;8264036;28;20022;-66
2021/07/22 11:15:10;;;;;;;779.45;711.83;;;30.80;94.20;;;;;;8278271;28;20037;-66
2021/07/22 11:19:14;;;;;;;788.08;718.97;;;31.30;87.20;;;;;;8272664;28;20715;-66
2021/07/22 11:23:15;;;;;;;796.58;728.75;;;31.50;89.70;;;;;;8272399;28;20080;-66
2021/07/22 11:27:17;;;;;;;810.50;742.25;;;32.10;85.60;;;;;;8269907;28;20027;-67
2021/07/22 11:31:17;;;;;;;830.00;760.85;;;32.80;88.10;;;;;;8282543;28;20655;-65
2021/07/22 11:35:19;;;;;;;842.13;772.55;;;34.40;79.60;;;;;;8298184;28;20026;-66
2021/07/22 11:39:31;;;;;;;860.45;790.53;;;36.40;68.00;;;;;;8274486;28;20117;-66
2021/07/22 11:43:44;;;;;;;847.85;778.47;;;36.80;56.10;;;;;;8270736;28;20038;-66
2021/07/22 11:47:44;;;;;;;851.58;782.53;;;35.10;58.20;;;;;;8265840;28;20486;-66
2021/07/22 11:51:47;;;;;;;861.00;791.97;;;35.80;57.10;;;;;;8281021;28;20030;-66
2021/07/22 11:55:47;;;;;;;850.63;782.42;;;37.40;56.00;;;;;;8285991;28;20030;-66
2021/07/22 11:59:48;;;;;;;849.25;781.38;;;35.60;55.60;;;;;;8284923;28;20038;-66
2021/07/22 12:03:50;;;;;;;856.38;787.88;;;36.20;57.30;;;;;;8279782;28;20042;-66
2021/07/22 12:07:52;;;;;;;864.58;796.10;;;36.20;54.50;;;;;;8277101;28;20022;-66
2021/07/22 12:11:58;;;;;;;868.05;799.40;;;37.30;53.50;;;;;;8261318;28;20564;-66
2021/07/22 12:15:59;;;;;;;878.33;809.22;;;38.00;53.30;;;;;;8263544;28;20037;-66
2021/07/22 12:20:01;;;;;;;872.95;804.65;;;37.90;52.10;;;;;;8259192;28;20084;-66
2021/07/22 12:24:20;;;;;;;871.72;803.22;;;36.90;50.70;;;;;;8275413;28;20022;-66
2021/07/22 12:28:20;;;;;;;884.72;815.60;;;36.80;52.40;;;;;;8283102;28;20042;-66
2021/07/22 12:32:21;;;;;;;893.25;823.78;;;37.60;50.80;;;;;;8279906;28;20579;-66
2021/07/22 12:36:22;;;;;;;876.90;808.05;;;37.60;49.10;;;;;;8279055;28;20112;-66
2021/07/22 12:40:45;;;;;;;826.65;759.72;;;36.40;48.10;;;;;;8290298;28;20030;-66
2021/07/22 12:44:51;;;;;;;796.85;730.72;;;32.90;53.00;;;;;;8292882;28;20645;-66
2021/07/22 12:48:52;;;;;;;793.22;727.10;;;32.00;57.60;;;;;;8274397;28;20125;-66
2021/07/22 12:52:52;;;;;;;783.90;717.97;;;32.50;53.10;;;;;;8251358;28;20508;-66
2021/07/22 12:56:53;;;;;;;807.22;740.60;;;32.90;56.90;;;;;;8272350;28;20037;-66
2021/07/22 13:01:02;;;;;;;819.80;753.25;;;34.20;56.00;;;;;;8273399;28;20088;-66
2021/07/22 13:05:07;;;;;;;805.28;738.55;;;35.10;50.20;;;;;;8262370;28;20030;-66
2021/07/22 13:09:07;;;;;;;733.30;668.33;;;36.20;55.00;;;;;;8281081;28;20500;-67
2021/07/22 13:13:09;;;;;;;945.00;869.03;;;41.80;46.10;;;;;;8268167;28;20028;-67
2021/07/22 13:17:09;;;;;;;855.72;786.95;;;45.30;39.20;;;;;;8283660;28;20025;-67
2021/07/22 13:21:12;;;;;;;1031.20;952.65;;;47.00;35.00;;;;;;8271644;28;20681;-67
2021/07/22 13:25:13;;;;;;;1016.50;939.08;;;45.10;34.20;;;;;;8289702;28;20749;-66
2021/07/22 13:29:14;;;;;;;1060.78;981.30;;;43.30;37.80;;;;;;8271875;28;20042;-66
2021/07/22 13:33:14;;;;;;;981.70;906.42;;;44.50;36.10;;;;;;8282576;28;20029;-66
2021/07/22 13:37:15;;;;;;;1014.50;936.22;;;42.50;34.60;;;;;;8278469;28;20109;-66
2021/07/22 13:41:16;;;;;;;992.22;914.65;;;37.00;42.70;;;;;;8275570;28;20500;-66
2021/07/22 13:45:16;;;;;;;873.17;802.35;;;36.30;44.90;;;;;;8283032;28;20405;-66
2021/07/22 13:49:17;;;;;;;940.35;866.20;;;35.60;46.90;;;;;;8286205;28;20061;-66
2021/07/22 13:53:17;;;;;;;942.67;869.53;;;39.40;45.00;;;;;;8279685;28;20057;-66
2021/07/22 13:57:18;;;;;;;956.00;881.90;;;43.50;38.10;;;;;;8271277;28;20026;-67
2021/07/22 14:01:18;;;;;;;1008.13;931.53;;;45.30;34.00;;;;;;8276240;28;20109;-67
2021/07/22 14:05:19;;;;;;;1081.10;997.15;;;46.30;33.60;;;;;;8288426;28;20018;-66
2021/07/22 14:09:20;;;;;;;1060.55;979.83;;;42.60;36.00;;;;;;8281567;28;20036;-66
2021/07/22 14:13:20;;;;;;;1043.35;963.92;;;38.10;38.80;;;;;;8275903;28;20068;-66
2021/07/22 14:17:21;;;;;;;1032.75;950.97;;;39.60;41.30;;;;;;8284983;28;20436;-66
2021/07/22 14:21:21;;;;;;;960.97;888.92;;;43.60;36.80;;;;;;8290349;28;20030;-67
2021/07/22 14:25:22;;;;;;;964.80;883.83;;;45.90;33.70;;;;;;8291878;28;20018;-66
2021/07/22 14:29:24;;;;;;;1020.90;943.88;;;45.80;33.50;;;;;;8283795;28;20105;-67
2021/07/22 14:33:24;;;;;;;1125.25;999.90;;;46.70;32.60;;;;;;8279715;28;20073;-67
2021/07/22 14:37:25;;;;;;;1102.93;999.90;;;45.30;32.90;;;;;;8287973;28;20022;-66
2021/07/22 14:41:25;;;;;;;1119.70;999.90;;;43.30;35.40;;;;;;8290000;28;20034;-67
2021/07/22 14:45:26;;;;;;;1117.35;999.90;;;44.40;35.00;;;;;;8286509;28;20037;-66
2021/07/22 14:49:26;;;;;;;1119.00;999.90;;;44.90;34.40;;;;;;8284312;28;20034;-67
2021/07/22 14:53:28;;;;;;;1119.43;999.90;;;44.50;34.60;;;;;;8279266;28;20037;-67
2021/07/22 14:57:29;;;;;;;1097.90;999.90;;;42.80;35.60;;;;;;8296755;28;20034;-67
2021/07/22 15:01:31;;;;;;;1090.30;999.90;;;41.70;37.10;;;;;;8272935;28;20031;-67
2021/07/22 15:05:31;;;;;;;1083.43;998.58;;;41.50;35.50;;;;;;8275923;28;20110;-67
2021/07/22 15:09:32;;;;;;;1043.85;967.25;;;41.80;37.60;;;;;;8274598;28;20025;-67
2021/07/22 15:13:33;;;;;;;1002.45;927.35;;;42.90;34.80;;;;;;8293692;28;20037;-66
2021/07/22 15:17:34;;;;;;;974.35;901.25;;;42.60;32.00;;;;;;8278906;28;20492;-66
2021/07/22 15:21:36;;;;;;;951.67;880.10;;;39.30;38.30;;;;;;8265526;28;20041;-66
2021/07/22 15:25:37;;;;;;;877.50;807.17;;;38.80;36.20;;;;;;8296192;28;20064;-66
2021/07/22 15:29:37;;;;;;;1008.55;930.30;;;37.50;41.00;;;;;;8270522;28;20033;-66
2021/07/22 15:33:38;;;;;;;978.35;903.35;;;36.20;44.00;;;;;;8287436;28;20076;-66
2021/07/22 15:37:39;;;;;;;926.88;852.90;;;37.20;44.80;;;;;;8294585;28;20101;-67
2021/07/22 15:41:40;;;;;;;965.10;890.83;;;40.30;40.40;;;;;;8286546;28;20022;-67
2021/07/22 15:45:41;;;;;;;1037.00;959.63;;;42.20;36.30;;;;;;8252091;28;20390;-67
2021/07/22 15:49:43;;;;;;;989.83;913.85;;;43.70;34.90;;;;;;8246190;28;20026;-67
2021/07/22 15:53:43;;;;;;;1057.30;978.83;;;44.90;34.60;;;;;;8269633;28;20084;-67
2021/07/22 15:57:44;;;;;;;991.10;916.17;;;45.70;32.30;;;;;;8279821;28;20116;-67
2021/07/22 16:01:45;;;;;;;1094.60;999.90;;;45.00;32.80;;;;;;8271719;28;20041;-67
2021/07/22 16:05:46;;;;;;;1049.70;972.88;;;45.10;32.60;;;;;;8286361;28;20041;-67
2021/07/22 16:09:47;;;;;;;1002.15;928.40;;;45.30;31.60;;;;;;8245074;28;20073;-66
2021/07/22 16:13:47;;;;;;;1072.60;992.58;;;44.70;32.00;;;;;;8266508;28;20416;-66
2021/07/22 16:17:48;;;;;;;1068.03;988.90;;;43.50;34.00;;;;;;8268516;28;20476;-66
2021/07/22 16:21:48;;;;;;;1060.30;981.35;;;43.70;34.40;;;;;;8264385;28;20424;-66
2021/07/22 16:25:49;;;;;;;1052.82;973.90;;;42.90;34.20;;;;;;8262343;28;20080;-66
2021/07/22 16:29:50;;;;;;;1040.90;962.13;;;40.30;36.30;;;;;;8281253;28;20046;-66
2021/07/22 16:33:50;;;;;;;1016.97;939.42;;;38.40;38.60;;;;;;8281114;28;20038;-66
2021/07/22 16:37:58;;;;;;;1013.15;935.90;;;37.10;42.10;;;;;;8260837;28;20443;-66
2021/07/22 16:41:58;;;;;;;1002.50;925.40;;;36.90;42.50;;;;;;8271382;28;20507;-66
2021/07/22 16:45:59;;;;;;;976.70;901.17;;;36.20;44.50;;;;;;8274697;28;20069;-66
2021/07/22 16:50:00;;;;;;;949.03;874.60;;;34.60;47.10;;;;;;8274896;28;20038;-66
2021/07/22 16:54:00;;;;;;;924.92;851.47;;;32.70;51.30;;;;;;8275292;28;20017;-66
2021/07/22 16:58:01;;;;;;;865.10;794.75;;;31.80;53.00;;;;;;8256377;28;20088;-66
2021/07/22 17:02:02;;;;;;;848.33;778.40;;;31.10;54.30;;;;;;8268847;28;20026;-66
2021/07/22 17:06:02;;;;;;;816.65;748.15;;;30.70;56.60;;;;;;8277447;28;20109;-66
2021/07/22 17:10:07;;;;;;;790.88;723.47;;;30.30;57.60;;;;;;8276088;28;20181;-66
2021/07/22 17:14:07;;;;;;;780.92;713.55;;;29.90;59.50;;;;;;8287557;28;20498;-66
2021/07/22 17:18:08;;;;;;;757.78;690.97;;;29.50;61.00;;;;;;8270879;28;20033;-66
2021/07/22 17:22:09;;;;;;;721.95;656.67;;;29.00;62.80;;;;;;8285858;28;20536;-67
2021/07/22 17:26:10;;;;;;;711.22;647.17;;;28.80;66.00;;;;;;8283405;28;20116;-66
2021/07/22 17:30:12;;;;;;;718.83;653.65;;;28.90;65.50;;;;;;8281445;28;20030;-66
2021/07/22 17:34:13;;;;;;;835.80;764.38;;;29.10;65.30;;;;;;8277708;28;20014;-66
2021/07/22 17:38:14;;;;;;;788.38;719.78;;;29.20;64.40;;;;;;8282787;28;20074;-67
2021/07/22 17:42:16;;;;;;;732.40;665.92;;;28.80;65.80;;;;;;8244650;28;20034;-66
2021/07/22 17:46:17;;;;;;;696.55;631.88;;;28.40;66.80;;;;;;8242232;28;20416;-67
2021/07/22 17:50:18;;;;;;;671.63;605.88;;;27.80;71.50;;;;;;8247931;28;20026;-67
2021/07/22 17:54:19;;;;;;;642.13;579.47;;;27.40;73.00;;;;;;8285930;28;20022;-67
2021/07/22 17:58:19;;;;;;;645.30;582.92;;;27.00;73.90;;;;;;8291221;28;20091;-67
2021/07/22 18:02:20;;;;;;;641.33;578.53;;;26.80;76.10;;;;;;8253570;28;20500;-67
2021/07/22 18:06:21;;;;;;;610.88;549.08;;;26.50;78.30;;;;;;8290754;28;20121;-67
2021/07/22 18:10:22;;;;;;;605.65;544.03;;;26.10;82.60;;;;;;8277500;28;20030;-66
2021/07/22 18:14:22;;;;;;;592.47;531.10;;;25.80;83.10;;;;;;8290959;28;20090;-66
2021/07/22 18:18:23;;;;;;;582.33;520.65;;;25.60;85.00;;;;;;8290943;28;20084;-66
2021/07/22 18:22:24;;;;;;;554.75;494.08;;;25.10;85.20;;;;;;8282715;28;20026;-66
2021/07/22 18:26:25;;;;;;;559.83;499.45;;;24.40;87.00;;;;;;8280801;28;20049;-66
2021/07/22 18:30:25;;;;;;;547.30;487.17;;;24.30;87.60;;;;;;8264855;28;20029;-65
2021/07/22 18:34:59;;;;;;;563.83;503.17;;;24.30;86.50;;;;;;8274383;28;20050;-66
2021/07/22 18:38:59;;;;;;;542.97;475.75;;;24.40;90.10;;;;;;8254363;28;20034;-65
2021/07/22 18:43:00;;;;;;;539.60;469.15;;;24.20;89.30;;;;;;8268500;28;20516;-65
2021/07/22 18:47:00;;;;;;;535.88;471.30;;;23.80;90.70;;;;;;8275145;28;20021;-65
2021/07/22 18:51:01;;;;;;;543.40;473.60;;;23.60;91.60;;;;;;8279484;28;20037;-66
2021/07/22 18:55:02;;;;;;;539.00;476.25;;;23.50;91.80;;;;;;8273947;28;20117;-66
2021/07/22 18:59:03;;;;;;;535.67;464.33;;;23.40;97.90;;;;;;8291918;28;20033;-66
2021/07/22 19:03:03;;;;;;;540.63;455.95;;;23.00;99.90;;;;;;8291097;28;20026;-66
2021/07/22 19:07:04;;;;;;;543.10;435.67;;;22.70;99.90;;;;;;8290158;28;20507;-65
2021/07/22 19:11:05;;;;;;;539.75;434.05;;;22.70;99.90;;;;;;8276465;28;20045;-65
2021/07/22 19:15:09;;;;;;;575.08;511.60;;;22.60;99.90;;;;;;8271285;28;20034;-65
2021/07/22 19:19:10;;;;;;;536.95;446.98;;;22.50;99.90;;;;;;8277735;28;20041;-65
2021/07/22 19:23:12;;;;;;;541.72;446.13;;;22.50;99.90;;;;;;8285594;28;20030;-65
2021/07/22 19:27:12;;;;;;;536.85;428.17;;;22.50;99.90;;;;;;8249998;28;20113;-65
2021/07/22 19:31:13;;;;;;;532.17;428.45;;;22.20;99.90;;;;;;8272809;28;20034;-65
2021/07/22 19:35:14;;;;;;;541.78;438.23;;;22.10;99.90;;;;;;8278730;28;20106;-65
2021/07/22 19:39:15;;;;;;;533.92;440.15;;;22.10;99.90;;;;;;8259697;28;20038;-64
2021/07/22 19:43:16;;;;;;;535.42;433.60;;;22.10;99.90;;;;;;8275162;28;20441;-64
2021/07/22 19:47:16;;;;;;;533.45;432.23;;;22.00;99.90;;;;;;8275236;28;20026;-64
2021/07/22 19:51:17;;;;;;;557.10;444.55;;;22.20;99.90;;;;;;8285674;28;20088;-63